Time;durP1;ratioP1;P1;durP2;ratioP2;P2;SDS_P1;SDS_P2;PMS_P1;PMS_P2;Temp;Humidity;BMP_temperature;BMP_pressure;BME280_temperature;BME280_humidity;BME280_pressure;Samples;Min_cycle;Max_cycle;Signal;HPM_P1;HPM_P2
2022/05/14 00:01:16;;;;;;;9.18;3.25;;;;;;;13.26;59.46;100097.47;5008743;28;20455;-68
2022/05/14 00:03:43;;;;;;;7.50;2.67;;;;;;;13.16;60.44;100096.28;5008966;28;20052;-69
2022/05/14 00:06:12;;;;;;;10.60;4.00;;;;;;;13.13;60.36;100098.25;5007884;28;20451;-68
2022/05/14 00:08:38;;;;;;;8.27;3.47;;;;;;;13.11;60.02;100096.53;5009174;28;20038;-67
2022/05/14 00:13:50;;;;;;;7.28;3.13;;;;;;;12.97;60.75;100093.78;5028497;28;20470;-69
2022/05/14 00:16:16;;;;;;;9.82;3.65;;;;;;;12.82;61.39;100102.53;5028126;28;20048;-68
2022/05/14 00:18:43;;;;;;;10.32;3.20;;;;;;;12.63;62.22;100097.38;5028502;28;20040;-67
2022/05/14 00:21:09;;;;;;;8.60;3.00;;;;;;;12.52;62.15;100092.63;5028821;28;20434;-67
2022/05/14 00:23:35;;;;;;;8.13;3.17;;;;;;;12.58;60.93;100096.78;5028926;28;20037;-69
2022/05/14 00:26:00;;;;;;;9.55;3.78;;;;;;;12.63;60.39;100092.94;5010359;28;20488;-68
2022/05/14 00:28:26;;;;;;;8.07;3.78;;;;;;;12.64;60.55;100091.16;5028614;28;20467;-68
2022/05/14 00:30:51;;;;;;;7.10;3.22;;;;;;;12.66;60.35;100097.22;5028672;28;20033;-69
2022/05/14 00:33:17;;;;;;;9.85;3.85;;;;;;;12.65;60.56;100087.56;5028816;28;20033;-69
2022/05/14 00:35:43;;;;;;;10.20;4.00;;;;;;;12.61;60.33;100092.16;5028938;28;20040;-68
2022/05/14 00:38:09;;;;;;;9.88;3.53;;;;;;;12.60;60.40;100090.47;5027309;28;20038;-68
2022/05/14 00:40:41;;;;;;;6.72;3.55;;;;;;;12.58;60.19;100087.03;5031976;28;20059;-67
2022/05/14 00:43:10;;;;;;;7.20;4.00;;;;;;;12.60;60.42;100093.13;5012697;28;20404;-68
2022/05/14 00:45:40;;;;;;;8.75;4.30;;;;;;;12.56;59.56;100099.50;5031888;28;20068;-68
2022/05/14 00:48:07;;;;;;;7.57;3.63;;;;;;;12.55;60.11;100097.78;5031425;28;20029;-68
2022/05/14 00:50:41;;;;;;;12.82;3.70;;;;;;;12.51;60.72;100095.38;5032046;28;20480;-67
2022/05/14 00:53:23;;;;;;;9.60;3.28;;;;;;;12.47;60.24;100092.03;5032189;28;20045;-69
2022/05/14 00:55:51;;;;;;;11.48;3.10;;;;;;;12.43;60.31;100091.34;5031361;28;20156;-68
2022/05/14 00:58:42;;;;;;;8.63;3.75;;;;;;;12.41;60.33;100097.66;5031862;28;20042;-67
2022/05/14 01:01:08;;;;;;;6.60;2.80;;;;;;;12.34;60.63;100089.16;5014532;28;20025;-67
2022/05/14 01:03:33;;;;;;;5.53;2.28;;;;;;;12.30;60.65;100092.91;5031260;28;20037;-68
2022/05/14 01:06:01;;;;;;;7.90;3.17;;;;;;;12.23;61.30;100087.09;5031563;28;20045;-69
2022/05/14 01:08:29;;;;;;;8.75;3.30;;;;;;;12.13;61.90;100090.25;5017154;28;20462;-68
2022/05/14 01:10:54;;;;;;;9.13;3.90;;;;;;;12.05;62.17;100095.94;5012415;28;20091;-67
2022/05/14 01:13:20;;;;;;;7.45;3.53;;;;;;;11.93;62.66;100084.19;5012185;28;20438;-69
2022/05/14 01:15:48;;;;;;;6.55;3.20;;;;;;;11.85;63.38;100091.63;5011895;28;20041;-68
2022/05/14 01:18:14;;;;;;;8.00;3.75;;;;;;;11.74;63.53;100089.53;4996621;28;20092;-68
2022/05/14 01:20:40;;;;;;;17.65;10.02;;;;;;;11.58;64.41;100088.56;5012365;28;20450;-68
2022/05/14 01:23:32;;;;;;;13.48;5.57;;;;;;;11.54;63.74;100087.84;5031763;28;20033;-68
2022/05/14 01:28:40;;;;;;;8.95;3.85;;;;;;;11.49;63.79;100083.72;5022887;28;20087;-68
2022/05/14 01:31:06;;;;;;;11.32;4.40;;;;;;;11.46;63.76;100084.72;5025340;28;20038;-67
2022/05/14 01:33:34;;;;;;;13.05;3.35;;;;;;;11.42;64.03;100079.66;4994160;28;20108;-67
2022/05/14 01:36:00;;;;;;;10.05;4.05;;;;;;;11.36;64.53;100080.81;5011348;28;20030;-67
2022/05/14 01:38:25;;;;;;;6.10;3.30;;;;;;;11.30;64.75;100078.47;5011381;28;20480;-69
2022/05/14 01:40:51;;;;;;;6.75;3.50;;;;;;;11.25;64.95;100083.97;5009639;28;20116;-69
2022/05/14 01:43:17;;;;;;;7.75;3.90;;;;;;;11.19;64.85;100084.25;5011419;28;20582;-68
2022/05/14 01:45:42;;;;;;;7.30;3.72;;;;;;;11.14;64.76;100084.44;5011374;28;20125;-69
2022/05/14 01:48:08;;;;;;;5.97;3.00;;;;;;;11.09;65.19;100077.69;5010631;28;20556;-68
2022/05/14 01:50:34;;;;;;;11.95;4.05;;;;;;;11.02;65.39;100081.53;5010125;28;20400;-68
2022/05/14 01:53:00;;;;;;;6.57;4.20;;;;;;;10.97;65.04;100079.09;5009085;28;20056;-68
2022/05/14 01:55:25;;;;;;;10.73;4.05;;;;;;;10.81;66.29;100065.78;5004064;28;20058;-68
2022/05/14 01:57:51;;;;;;;8.43;3.42;;;;;;;10.71;66.21;100075.88;5009164;28;20041;-68
2022/05/14 02:00:18;;;;;;;7.35;3.65;;;;;;;10.68;66.50;100078.66;5010770;28;20064;-68
2022/05/14 02:02:43;;;;;;;7.88;3.17;;;;;;;10.68;66.42;100083.06;5008909;28;20030;-69
2022/05/14 02:05:09;;;;;;;6.28;3.42;;;;;;;10.67;66.38;100087.47;5011245;28;20120;-67
2022/05/14 02:07:34;;;;;;;7.32;3.50;;;;;;;10.65;66.79;100084.06;5010350;28;20037;-69
2022/05/14 02:10:00;;;;;;;4.60;2.90;;;;;;;10.59;66.78;100086.13;5011085;28;20042;-69
2022/05/14 02:12:25;;;;;;;6.57;3.53;;;;;;;10.46;67.27;100077.88;5010849;28;20112;-69
2022/05/14 02:14:50;;;;;;;12.85;4.03;;;;;;;10.46;67.11;100076.13;5011116;28;20093;-68
2022/05/14 02:17:16;;;;;;;10.85;3.45;;;;;;;10.47;67.05;100082.25;5010382;28;20064;-69
2022/05/14 02:19:41;;;;;;;9.77;3.53;;;;;;;10.52;66.62;100072.34;5011124;28;20054;-68
2022/05/14 02:22:06;;;;;;;11.15;4.30;;;;;;;10.55;66.71;100079.28;5011018;28;20128;-68
2022/05/14 02:24:37;;;;;;;6.55;3.72;;;;;;;10.56;66.45;100080.97;5010946;28;20092;-68
2022/05/14 02:27:03;;;;;;;8.85;3.30;;;;;;;10.59;66.87;100089.63;5010236;28;20045;-68
2022/05/14 02:29:50;;;;;;;10.00;3.75;;;;;;;10.59;66.37;100080.84;5011121;28;20034;-68
2022/05/14 02:32:15;;;;;;;7.50;3.25;;;;;;;10.61;65.91;100076.34;5010883;28;20034;-68
2022/05/14 02:34:40;;;;;;;8.40;2.72;;;;;;;10.64;65.92;100086.78;5011355;28;20439;-68
2022/05/14 02:37:05;;;;;;;6.22;3.08;;;;;;;10.63;65.59;100083.28;5030302;28;20037;-68
2022/05/14 02:39:31;;;;;;;7.25;3.38;;;;;;;10.66;65.34;100082.31;5032282;28;20041;-69
2022/05/14 02:41:56;;;;;;;6.20;3.55;;;;;;;10.68;65.19;100090.97;5031726;28;20040;-69
2022/05/14 02:44:21;;;;;;;8.52;4.22;;;;;;;10.70;65.29;100095.25;5032310;28;20029;-69
2022/05/14 02:46:47;;;;;;;5.82;3.55;;;;;;;10.69;64.97;100088.28;5029421;28;20069;-69
2022/05/14 02:49:12;;;;;;;8.68;3.05;;;;;;;10.69;64.51;100087.44;5030452;28;20056;-69
2022/05/14 02:51:37;;;;;;;7.10;3.28;;;;;;;10.66;65.22;100080.50;5030700;28;20039;-69
2022/05/14 02:54:03;;;;;;;6.63;3.42;;;;;;;10.65;64.90;100091.13;5013041;28;20048;-69
2022/05/14 02:56:28;;;;;;;5.22;3.30;;;;;;;10.66;64.55;100092.84;5029773;28;20037;-69
2022/05/14 02:59:09;;;;;;;8.55;3.50;;;;;;;10.65;64.56;100086.69;5030399;28;20060;-69
2022/05/14 03:01:36;;;;;;;10.48;3.45;;;;;;;10.65;64.53;100094.59;5029879;28;20402;-69
2022/05/14 03:04:04;;;;;;;8.02;3.40;;;;;;;10.65;64.44;100091.13;5029717;28;20041;-69
2022/05/14 03:06:30;;;;;;;10.25;3.65;;;;;;;10.64;64.92;100087.63;5028818;28;20040;-70
2022/05/14 03:08:56;;;;;;;7.22;3.60;;;;;;;10.64;64.85;100086.78;5029734;28;20033;-69
2022/05/14 03:11:21;;;;;;;7.22;3.65;;;;;;;10.65;64.39;100088.47;5029574;28;20041;-69
2022/05/14 03:13:48;;;;;;;6.70;3.22;;;;;;;10.65;64.78;100083.22;5029757;28;20045;-69
2022/05/14 03:16:13;;;;;;;7.53;3.47;;;;;;;10.66;64.99;100083.16;5028442;28;20037;-69
2022/05/14 03:18:39;;;;;;;7.28;3.08;;;;;;;10.63;64.91;100090.31;5029635;28;20095;-69
2022/05/14 03:21:04;;;;;;;7.40;4.25;;;;;;;10.63;65.09;100083.28;5029590;28;20029;-69
2022/05/14 03:23:30;;;;;;;10.93;3.72;;;;;;;10.59;65.46;100080.84;5029536;28;20030;-69
2022/05/14 03:25:55;;;;;;;12.55;3.70;;;;;;;10.55;65.46;100077.47;5028842;28;20041;-69
2022/05/14 03:28:21;;;;;;;10.63;3.50;;;;;;;10.52;65.33;100086.38;5029294;28;20733;-70
2022/05/14 03:30:46;;;;;;;11.90;4.18;;;;;;;10.47;66.05;100091.00;5030452;28;20038;-69
2022/05/14 03:33:12;;;;;;;7.07;3.63;;;;;;;10.41;66.37;100088.66;5029357;28;20036;-68
2022/05/14 03:35:37;;;;;;;5.82;3.70;;;;;;;10.39;66.42;100087.00;5032417;28;20116;-69
2022/05/14 03:38:03;;;;;;;4.93;3.13;;;;;;;10.33;66.49;100085.47;5028934;28;20029;-69
2022/05/14 03:40:28;;;;;;;7.38;3.53;;;;;;;10.27;66.71;100078.66;5028547;28;20033;-69
2022/05/14 03:42:53;;;;;;;14.35;4.43;;;;;;;10.24;66.96;100083.22;5029753;28;20048;-69
2022/05/14 03:45:19;;;;;;;8.52;3.53;;;;;;;10.24;66.89;100088.50;5029387;28;20029;-68
2022/05/14 03:47:44;;;;;;;5.88;3.90;;;;;;;10.22;66.93;100082.44;5028355;28;20124;-68
2022/05/14 03:50:09;;;;;;;9.48;4.47;;;;;;;10.21;67.07;100083.34;5029605;28;20063;-68
2022/05/14 03:52:35;;;;;;;13.18;5.57;;;;;;;10.19;67.74;100086.06;5029391;28;20036;-68
2022/05/14 03:55:00;;;;;;;7.55;3.65;;;;;;;10.20;67.43;100081.63;5029208;28;20045;-68
2022/05/14 03:57:26;;;;;;;11.02;4.20;;;;;;;10.25;67.15;100082.28;5028417;28;20045;-69
2022/05/14 03:59:51;;;;;;;8.35;4.32;;;;;;;10.30;67.10;100075.06;5029018;28;20120;-69
2022/05/14 04:02:17;;;;;;;8.65;4.38;;;;;;;10.34;66.54;100081.06;5029054;28;20041;-68
2022/05/14 04:04:43;;;;;;;10.80;4.28;;;;;;;10.38;66.60;100080.00;5029263;28;20038;-69
2022/05/14 04:07:10;;;;;;;11.30;5.25;;;;;;;10.38;66.44;100077.38;5029080;28;20115;-68
2022/05/14 04:09:35;;;;;;;7.95;3.83;;;;;;;10.39;66.17;100077.31;5029213;28;20040;-69
2022/05/14 04:12:01;;;;;;;10.63;4.35;;;;;;;10.41;66.59;100079.88;5029319;28;20041;-69
2022/05/14 04:14:26;;;;;;;13.77;5.28;;;;;;;10.37;66.79;100078.31;5030707;28;20513;-69
2022/05/14 04:16:52;;;;;;;6.53;4.00;;;;;;;10.39;67.09;100084.38;5032205;28;20098;-69
2022/05/14 04:19:19;;;;;;;9.63;3.95;;;;;;;10.38;66.68;100085.28;5032382;28;20110;-69
2022/05/14 04:21:44;;;;;;;7.78;4.20;;;;;;;10.32;66.51;100084.63;5032208;28;20111;-70
2022/05/14 04:24:10;;;;;;;8.68;4.00;;;;;;;10.32;67.21;100086.41;5015435;28;20108;-70
2022/05/14 04:26:35;;;;;;;6.78;5.22;;;;;;;10.35;67.06;100085.44;5032093;28;20037;-68
2022/05/14 04:29:00;;;;;;;10.93;4.13;;;;;;;10.35;67.00;100083.63;5032465;28;20540;-69
2022/05/14 04:31:26;;;;;;;10.70;4.70;;;;;;;10.31;67.38;100087.31;5014862;28;20033;-69
2022/05/14 04:33:51;;;;;;;6.32;4.28;;;;;;;10.36;67.33;100074.81;5032227;28;20383;-70
2022/05/14 04:36:16;;;;;;;9.07;4.95;;;;;;;10.35;67.59;100083.63;5031712;28;20631;-70
2022/05/14 04:38:42;;;;;;;9.07;4.55;;;;;;;10.43;67.07;100091.22;5014562;28;20072;-69
2022/05/14 04:41:08;;;;;;;9.05;3.45;;;;;;;10.52;67.04;100088.19;5033110;28;20038;-69
2022/05/14 04:43:34;;;;;;;7.90;4.22;;;;;;;10.59;66.63;100094.03;5032004;28;20037;-69
2022/05/14 04:46:00;;;;;;;9.40;3.85;;;;;;;10.65;66.55;100091.97;5031369;28;20034;-70
2022/05/14 04:48:25;;;;;;;8.55;4.57;;;;;;;10.70;66.29;100092.63;5031529;28;20029;-69
2022/05/14 04:50:50;;;;;;;8.63;4.72;;;;;;;10.77;66.09;100101.13;5032026;28;20318;-69
2022/05/14 04:53:16;;;;;;;6.63;3.45;;;;;;;10.88;66.28;100101.50;5032192;28;20083;-68
2022/05/14 04:55:42;;;;;;;10.48;4.80;;;;;;;10.99;66.09;100094.88;5032050;28;20061;-69
2022/05/14 04:58:08;;;;;;;9.25;4.82;;;;;;;11.05;65.65;100094.56;5031657;28;20037;-70
2022/05/14 05:00:37;;;;;;;24.17;6.32;;;;;;;11.12;65.39;100096.00;5031953;28;20103;-70
2022/05/14 05:03:19;;;;;;;10.45;4.35;;;;;;;11.20;65.38;100101.81;5031737;28;20033;-70
2022/05/14 05:05:58;;;;;;;11.18;4.03;;;;;;;11.25;65.08;100097.16;5011720;28;20517;-70
2022/05/14 05:08:27;;;;;;;6.60;3.78;;;;;;;11.30;64.51;100096.94;5011873;28;20034;-69
2022/05/14 05:10:53;;;;;;;9.35;3.80;;;;;;;11.35;64.38;100095.78;4994314;28;20041;-69
2022/05/14 05:13:22;;;;;;;11.80;4.18;;;;;;;11.40;64.57;100095.56;5011858;28;20120;-69
2022/05/14 05:15:48;;;;;;;7.13;3.90;;;;;;;11.48;64.10;100101.34;5011474;28;20042;-69
2022/05/14 05:18:14;;;;;;;11.57;4.10;;;;;;;11.56;63.84;100098.31;5011299;28;20036;-70
2022/05/14 05:20:42;;;;;;;11.20;3.78;;;;;;;11.64;63.69;100097.94;5012165;28;20386;-69
2022/05/14 05:23:11;;;;;;;8.73;4.35;;;;;;;11.71;63.22;100091.44;5011956;28;20038;-69
2022/05/14 05:25:36;;;;;;;7.75;4.07;;;;;;;11.80;63.26;100102.41;5011467;28;20086;-69
2022/05/14 05:28:02;;;;;;;7.78;3.80;;;;;;;11.85;62.81;100098.69;5010669;28;20041;-69
2022/05/14 05:30:27;;;;;;;9.00;4.43;;;;;;;11.89;62.56;100106.44;5011563;28;20034;-69
2022/05/14 05:32:53;;;;;;;7.53;3.60;;;;;;;11.92;62.54;100106.28;5011355;28;20041;-69
2022/05/14 05:35:20;;;;;;;10.07;4.03;;;;;;;11.97;62.07;100112.19;5011158;28;20045;-69
2022/05/14 05:37:46;;;;;;;10.52;3.63;;;;;;;11.98;62.43;100118.31;5012962;28;20132;-70
2022/05/14 05:40:11;;;;;;;6.80;3.83;;;;;;;12.02;62.30;100114.59;5011751;28;20030;-70
2022/05/14 05:42:36;;;;;;;9.93;4.05;;;;;;;12.04;62.11;100125.94;5011518;28;20037;-70
2022/05/14 05:45:03;;;;;;;12.57;3.60;;;;;;;12.05;61.94;100111.78;5011678;28;20535;-71
2022/05/14 05:47:28;;;;;;;8.30;3.58;;;;;;;12.05;61.97;100117.09;5010901;28;20042;-70
2022/05/14 05:49:53;;;;;;;8.43;3.60;;;;;;;12.11;62.07;100130.00;5011751;28;20603;-70
2022/05/14 05:52:19;;;;;;;11.80;4.93;;;;;;;12.16;61.84;100133.28;5011368;28;20061;-69
2022/05/14 05:57:33;;;;;;;10.55;4.05;;;;;;;12.30;61.67;100134.34;5010735;28;20537;-69
2022/05/14 05:59:59;;;;;;;8.50;3.80;;;;;;;12.36;61.26;100132.25;5011364;28;20041;-70
2022/05/14 06:02:25;;;;;;;12.68;4.53;;;;;;;12.41;61.33;100126.75;5011393;28;20696;-69
2022/05/14 06:04:51;;;;;;;12.52;4.95;;;;;;;12.49;60.91;100134.28;5009492;28;20038;-69
2022/05/14 06:07:16;;;;;;;6.25;3.28;;;;;;;12.63;60.91;100137.06;5010569;28;20088;-68
2022/05/14 06:09:42;;;;;;;7.18;3.40;;;;;;;12.79;61.08;100131.81;5010191;28;20124;-69
2022/05/14 06:12:08;;;;;;;8.20;3.55;;;;;;;12.93;59.48;100131.94;5010880;28;20084;-69
2022/05/14 06:14:33;;;;;;;9.88;4.00;;;;;;;13.05;59.86;100130.44;5010740;28;20092;-70
2022/05/14 06:16:58;;;;;;;10.30;4.03;;;;;;;13.11;59.19;100133.56;5010351;28;20038;-70
2022/05/14 06:19:24;;;;;;;16.73;4.60;;;;;;;13.35;58.69;100135.88;5010566;28;20042;-69
2022/05/14 06:21:49;;;;;;;7.75;3.75;;;;;;;13.46;58.08;100132.63;5010559;28;20041;-69
2022/05/14 06:24:14;;;;;;;14.40;6.43;;;;;;;13.48;58.72;100131.59;5010059;28;20129;-69
2022/05/14 06:26:40;;;;;;;7.63;4.93;;;;;;;13.50;58.66;100139.47;5009777;28;20038;-69
2022/05/14 06:29:06;;;;;;;13.50;4.97;;;;;;;13.52;58.36;100142.88;5009745;28;20038;-70
2022/05/14 06:31:31;;;;;;;13.40;4.05;;;;;;;13.58;59.09;100139.03;5009394;28;20083;-69
2022/05/14 06:33:57;;;;;;;8.93;4.30;;;;;;;13.64;58.78;100139.56;5009536;28;20069;-69
2022/05/14 06:36:22;;;;;;;7.20;4.13;;;;;;;13.67;58.63;100141.16;5007553;28;20035;-69
2022/05/14 06:38:48;;;;;;;14.15;4.43;;;;;;;13.77;58.37;100139.69;5006562;28;20088;-70
2022/05/14 06:41:14;;;;;;;17.10;5.28;;;;;;;13.81;58.27;100140.38;5008959;28;20483;-69
2022/05/14 06:43:40;;;;;;;8.13;4.57;;;;;;;13.92;58.21;100152.06;5010021;28;20163;-70
2022/05/14 06:46:06;;;;;;;16.65;5.50;;;;;;;14.02;58.21;100143.59;5008174;28;20068;-69
2022/05/14 06:48:31;;;;;;;9.00;4.75;;;;;;;14.18;57.87;100141.78;5008622;28;20038;-68
2022/05/14 06:51:04;;;;;;;11.10;3.58;;;;;;;14.42;58.05;100146.56;5008967;28;20048;-52
2022/05/14 06:53:30;;;;;;;9.07;4.38;;;;;;;14.72;56.87;100150.06;5011601;28;20439;-54
2022/05/14 06:55:59;;;;;;;10.43;4.10;;;;;;;15.01;55.97;100145.66;5010433;28;20041;-57
2022/05/14 06:58:37;;;;;;;12.25;4.75;;;;;;;15.06;55.37;100142.69;5010204;28;20042;-57
2022/05/14 07:01:03;;;;;;;13.93;4.90;;;;;;;15.09;55.56;100139.84;5010619;28;20527;-53
2022/05/14 07:09:02;;;;;;;16.63;5.65;;;;;;;15.58;53.77;100150.03;5012784;28;20041;-56
2022/05/14 07:11:27;;;;;;;13.45;4.45;;;;;;;15.62;54.51;100142.69;5011922;28;20500;-59
2022/05/14 07:13:53;;;;;;;7.93;4.65;;;;;;;15.66;53.85;100149.53;5010306;28;20057;-49
2022/05/14 07:16:18;;;;;;;11.95;4.57;;;;;;;15.80;53.53;100152.19;5011676;28;20391;-52
2022/05/14 07:18:44;;;;;;;11.95;4.05;;;;;;;15.98;53.96;100147.47;5005882;28;20187;-57
2022/05/14 07:21:10;;;;;;;11.27;4.45;;;;;;;16.45;53.90;100153.22;5010832;28;20041;-54
2022/05/14 07:23:35;;;;;;;11.85;4.60;;;;;;;16.89;52.24;100154.69;5008368;28;20037;-52
2022/05/14 07:26:06;;;;;;;12.90;3.78;;;;;;;17.24;51.07;100149.53;5013968;28;20072;-53
2022/05/14 07:28:33;;;;;;;8.20;4.05;;;;;;;17.58;49.50;100139.09;5046626;28;20624;-55
2022/05/14 07:31:01;;;;;;;8.68;4.22;;;;;;;17.84;48.83;100136.38;5047680;28;20687;-57
2022/05/14 07:33:26;;;;;;;11.20;4.68;;;;;;;18.30;48.21;100136.44;5025865;28;20039;-56
2022/05/14 07:35:52;;;;;;;13.02;4.63;;;;;;;18.59;47.18;100136.88;5044715;28;20037;-53
2022/05/14 07:38:18;;;;;;;14.25;5.03;;;;;;;18.59;47.13;100136.03;5012930;28;20057;-57
2022/05/14 07:40:44;;;;;;;9.88;4.18;;;;;;;18.70;46.39;100137.88;5016283;28;20067;-68
2022/05/14 07:43:15;;;;;;;14.18;4.22;;;;;;;18.87;46.15;100140.13;5019267;28;20041;-67
2022/05/14 07:45:43;;;;;;;19.50;5.10;;;;;;;18.84;46.24;100129.69;5022997;28;20446;-68
2022/05/14 07:48:13;;;;;;;13.93;4.97;;;;;;;18.65;46.42;100135.56;5024968;28;20044;-68
2022/05/14 07:50:39;;;;;;;11.23;3.80;;;;;;;18.73;46.96;100141.19;5027487;28;20144;-68
2022/05/14 07:53:05;;;;;;;11.07;3.85;;;;;;;19.04;45.80;100141.47;5028561;28;20042;-70
2022/05/14 07:55:33;;;;;;;10.50;4.13;;;;;;;19.27;45.29;100135.16;5020921;28;20045;-68
2022/05/14 07:57:59;;;;;;;8.18;3.50;;;;;;;19.47;45.55;100135.38;5007569;28;20076;-70
2022/05/14 08:00:25;;;;;;;13.20;4.47;;;;;;;19.82;44.41;100142.38;5008029;28;20065;-69
2022/05/14 08:02:51;;;;;;;10.15;3.88;;;;;;;20.25;43.40;100155.69;5008101;28;20048;-69
2022/05/14 08:05:20;;;;;;;11.55;4.30;;;;;;;20.75;42.41;100152.44;5008920;28;20042;-69
2022/05/14 08:07:47;;;;;;;7.65;3.80;;;;;;;21.32;41.44;100144.81;5022854;28;20053;-68
2022/05/14 08:10:13;;;;;;;6.95;3.85;;;;;;;21.59;40.42;100142.38;5036049;28;20546;-68
2022/05/14 08:12:42;;;;;;;9.27;3.58;;;;;;;21.59;40.60;100136.16;5044845;28;20163;-68
2022/05/14 08:15:10;;;;;;;20.20;4.38;;;;;;;21.28;41.39;100144.22;5047971;28;20033;-69
2022/05/14 08:17:35;;;;;;;13.00;4.85;;;;;;;21.21;41.11;100143.91;5047696;28;20033;-69
2022/05/14 08:20:01;;;;;;;10.73;4.03;;;;;;;21.06;41.65;100141.72;5047919;28;20426;-70
2022/05/14 08:25:11;;;;;;;11.95;4.03;;;;;;;21.05;42.03;100135.53;5047535;28;20040;-71
2022/05/14 08:27:44;;;;;;;13.90;4.43;;;;;;;21.12;41.56;100139.38;5046083;28;20033;-68
2022/05/14 08:30:32;;;;;;;15.73;3.90;;;;;;;20.77;42.24;100145.97;5047483;28;20111;-67
2022/05/14 08:32:58;;;;;;;8.85;3.90;;;;;;;20.64;42.53;100147.97;5047603;28;20585;-70
2022/05/14 08:35:24;;;;;;;16.20;4.00;;;;;;;20.68;42.73;100145.91;5011630;28;20136;-68
2022/05/14 08:37:51;;;;;;;7.20;3.92;;;;;;;20.71;42.15;100149.16;5033460;28;20094;-69
2022/05/14 08:40:37;;;;;;;11.20;3.97;;;;;;;20.74;42.83;100140.84;5027477;28;20033;-72
2022/05/14 08:43:08;;;;;;;12.25;5.55;;;;;;;20.61;42.86;100150.94;5027835;28;20034;-69
2022/05/14 08:45:36;;;;;;;7.80;4.20;;;;;;;20.59;43.05;100153.72;5027768;28;20604;-69
2022/05/14 08:48:10;;;;;;;11.48;4.13;;;;;;;20.48;43.05;100139.56;5027218;28;20561;-70
2022/05/14 08:50:38;;;;;;;14.23;4.68;;;;;;;20.44;43.12;100143.47;5027808;28;20029;-69
2022/05/14 08:53:10;;;;;;;22.30;5.18;;;;;;;20.31;43.79;100133.78;5027395;28;20052;-68
2022/05/14 08:55:54;;;;;;;10.32;4.18;;;;;;;20.31;43.91;100135.63;5027122;28;20588;-70
2022/05/14 08:58:39;;;;;;;14.18;4.50;;;;;;;20.35;43.73;100145.06;5027155;28;20129;-69
2022/05/14 09:01:06;;;;;;;13.57;4.95;;;;;;;20.35;43.85;100143.28;5026380;28;20041;-68
2022/05/14 09:03:32;;;;;;;7.50;4.10;;;;;;;20.50;43.58;100142.91;5027463;28;20056;-70
2022/05/14 09:05:59;;;;;;;10.13;4.68;;;;;;;20.72;43.24;100142.84;5008661;28;20499;-69
2022/05/14 09:08:25;;;;;;;15.38;5.03;;;;;;;20.92;42.76;100132.19;5026911;28;20079;-69
2022/05/14 09:10:59;;;;;;;13.00;4.57;;;;;;;21.23;42.02;100139.25;5022830;28;20522;-69
2022/05/14 09:13:25;;;;;;;14.23;5.10;;;;;;;21.20;42.36;100147.56;5008734;28;20032;-69
2022/05/14 09:15:57;;;;;;;16.13;5.57;;;;;;;21.66;41.15;100140.00;5027246;28;20041;-69
2022/05/14 09:18:30;;;;;;;10.13;4.53;;;;;;;22.11;40.24;100131.41;5026676;28;20041;-70
2022/05/14 09:21:00;;;;;;;8.68;4.00;;;;;;;22.59;39.04;100135.06;5025212;28;20065;-69
2022/05/14 09:23:48;;;;;;;13.88;5.03;;;;;;;23.30;38.06;100132.72;5026712;28;20502;-70
2022/05/14 09:26:36;;;;;;;18.80;5.47;;;;;;;24.04;36.51;100119.25;5023019;28;20056;-68
2022/05/14 09:29:34;;;;;;;8.60;4.68;;;;;;;24.75;35.01;100121.84;5026888;28;20099;-67
2022/05/14 09:32:06;;;;;;;9.82;6.07;;;;;;;25.02;34.46;100118.13;5046181;28;20517;-68
2022/05/14 09:34:34;;;;;;;13.55;6.65;;;;;;;25.80;34.40;100121.66;5046707;28;20251;-69
2022/05/14 09:37:06;;;;;;;18.63;6.20;;;;;;;26.38;32.45;100122.56;5045863;28;20044;-69
2022/05/14 09:39:31;;;;;;;8.32;3.65;;;;;;;26.88;31.97;100116.13;5046070;28;20037;-69
2022/05/14 09:42:00;;;;;;;14.45;5.43;;;;;;;27.21;30.62;100124.16;5046109;28;20102;-70
2022/05/14 09:44:44;;;;;;;8.43;4.25;;;;;;;27.55;30.28;100115.69;5046009;28;20048;-67
2022/05/14 09:47:27;;;;;;;14.20;4.63;;;;;;;27.81;29.60;100112.66;5045457;28;20648;-67
2022/05/14 09:49:59;;;;;;;14.02;5.22;;;;;;;28.04;29.27;100116.25;5046088;28;20041;-67
2022/05/14 09:52:35;;;;;;;12.73;4.53;;;;;;;28.43;28.70;100117.13;5045855;28;20033;-66
2022/05/14 09:55:08;;;;;;;9.70;3.75;;;;;;;28.57;28.22;100115.50;5025992;28;20813;-67
2022/05/14 09:57:51;;;;;;;11.90;5.47;;;;;;;28.71;28.05;100111.13;5006161;28;20772;-66
2022/05/14 10:00:21;;;;;;;12.70;4.63;;;;;;;28.77;27.67;100111.22;5006439;28;20042;-67
2022/05/14 10:02:59;;;;;;;8.45;4.18;;;;;;;28.97;27.69;100114.22;5004269;28;20466;-67
2022/05/14 10:05:36;;;;;;;11.88;4.35;;;;;;;28.73;27.21;100111.78;5006099;28;20046;-68
2022/05/14 10:08:31;;;;;;;10.82;4.80;;;;;;;28.79;27.65;100106.44;5016550;28;20514;-68
2022/05/14 10:11:05;;;;;;;14.75;4.57;;;;;;;28.74;27.87;100106.16;5015826;28;20040;-68
2022/05/14 10:13:39;;;;;;;;;;;;;;;28.95;27.24;100104.59;5028318;28;20658;-69
2022/05/14 10:16:21;;;;;;;7.20;3.53;;;;;;;29.13;26.93;100106.94;5044844;28;19916;-68
2022/05/14 10:18:55;;;;;;;9.65;3.80;;;;;;;29.36;26.57;100110.38;5045512;28;21102;-66
2022/05/14 10:21:52;;;;;;;16.25;4.47;;;;;;;29.47;27.00;100106.34;5038758;28;20037;-68
2022/05/14 10:27:46;;;;;;;13.77;3.92;;;;;;;29.31;26.59;100104.66;5020227;28;20138;-67
2022/05/14 10:30:22;;;;;;;13.35;3.88;;;;;;;29.49;26.60;100112.44;5026637;28;20049;-67
2022/05/14 10:33:12;;;;;;;9.02;4.22;;;;;;;29.56;26.42;100102.47;5027907;28;20041;-68
2022/05/14 10:35:58;;;;;;;14.18;4.57;;;;;;;29.29;26.98;100104.03;5009293;28;20037;-67
2022/05/14 10:38:46;;;;;;;10.80;4.47;;;;;;;29.49;26.38;100110.53;5026427;28;20509;-67
2022/05/14 10:41:22;;;;;;;10.85;3.75;;;;;;;29.22;26.57;100097.69;5026350;28;20041;-66
2022/05/14 10:43:55;;;;;;;13.73;3.88;;;;;;;29.06;27.31;100098.69;5026790;28;20760;-68
2022/05/14 10:46:23;;;;;;;20.15;5.00;;;;;;;29.33;26.11;100108.03;5013427;28;20034;-66
2022/05/14 10:48:58;;;;;;;9.18;4.07;;;;;;;29.09;26.53;100101.03;5006603;28;20038;-66
2022/05/14 10:51:29;;;;;;;11.45;3.25;;;;;;;28.96;26.31;100098.13;5006720;28;20648;-66
2022/05/14 10:53:55;;;;;;;8.18;3.45;;;;;;;28.31;27.25;100100.44;5005828;28;20567;-67
2022/05/14 10:56:49;;;;;;;9.27;3.92;;;;;;;27.82;27.06;100093.53;5003889;28;20042;-67
2022/05/14 10:59:14;;;;;;;14.48;4.25;;;;;;;27.06;28.53;100100.47;5005150;28;20041;-67
2022/05/14 11:01:59;;;;;;;9.63;3.95;;;;;;;26.12;29.83;100101.97;5005563;28;20064;-67
2022/05/14 11:04:26;;;;;;;15.48;4.10;;;;;;;25.74;29.76;100096.16;4999786;28;20152;-68
2022/05/14 11:06:54;;;;;;;13.68;3.97;;;;;;;25.52;29.54;100099.47;5000744;28;20045;-67
2022/05/14 11:09:42;;;;;;;10.90;3.90;;;;;;;25.32;29.68;100090.81;5001526;28;20053;-67
2022/05/14 11:12:30;;;;;;;9.23;3.03;;;;;;;25.16;29.45;100102.38;5004451;28;20041;-67
2022/05/14 11:14:58;;;;;;;11.27;4.13;;;;;;;24.85;30.55;100108.28;5028401;28;20518;-69
2022/05/14 11:17:34;;;;;;;11.15;3.90;;;;;;;24.46;32.52;100107.84;5024319;28;20391;-69
2022/05/14 11:20:02;;;;;;;14.27;4.95;;;;;;;24.16;33.60;100105.38;5015395;28;20041;-68
2022/05/14 11:22:34;;;;;;;11.90;4.13;;;;;;;24.28;33.23;100102.47;5005715;28;20541;-68
2022/05/14 11:25:12;;;;;;;10.13;3.88;;;;;;;24.28;31.44;100103.31;5006651;28;20140;-68
2022/05/14 11:27:39;;;;;;;9.68;2.78;;;;;;;24.23;32.24;100107.47;5022441;28;20029;-67
2022/05/14 11:30:13;;;;;;;15.77;5.00;;;;;;;24.21;32.78;100097.69;5028172;28;20041;-68
2022/05/14 11:32:51;;;;;;;8.93;3.55;;;;;;;24.17;32.52;100099.03;5024748;28;20229;-67
2022/05/14 11:35:17;;;;;;;9.98;3.35;;;;;;;24.19;32.49;100097.03;5028351;28;20083;-66
2022/05/14 11:37:50;;;;;;;8.55;3.80;;;;;;;24.02;32.42;100092.47;5026994;28;20037;-67
2022/05/14 11:40:21;;;;;;;7.82;3.80;;;;;;;24.06;33.20;100103.78;5028385;28;20060;-67
2022/05/14 11:42:49;;;;;;;11.57;3.42;;;;;;;24.04;31.95;100100.41;5029288;28;20045;-67
2022/05/14 11:45:26;;;;;;;11.77;3.30;;;;;;;23.82;32.94;100099.84;5026456;28;20037;-70
2022/05/14 11:48:04;;;;;;;9.95;3.50;;;;;;;24.05;33.00;100100.25;5026300;28;20459;-68
2022/05/14 11:50:55;;;;;;;9.55;4.72;;;;;;;23.73;32.65;100092.72;5024114;28;20037;-67